createdAt,value
2023-03-26T00:01:51.932Z,32.72
2023-03-26T00:04:22.041Z,36.45
2023-03-26T00:06:50.294Z,33.95
2023-03-26T00:09:18.817Z,32.55
2023-03-26T00:11:46.777Z,34.38
2023-03-26T00:14:17.456Z,34.05
2023-03-26T00:16:45.599Z,38.50
2023-03-26T00:19:13.871Z,33.00
2023-03-26T00:21:48.877Z,35.78
2023-03-26T00:24:17.507Z,35.78
2023-03-26T00:26:48.451Z,36.47
2023-03-26T00:29:19.824Z,37.22
2023-03-26T00:31:47.396Z,40.28
2023-03-26T00:34:18.637Z,37.92
2023-03-26T00:36:47.335Z,36.00
2023-03-26T00:39:15.323Z,38.80
2023-03-26T00:41:43.260Z,35.88
2023-03-26T00:44:11.472Z,37.97
2023-03-26T00:46:39.346Z,35.67
2023-03-26T00:49:10.720Z,36.08
2023-03-26T00:51:42.312Z,39.28
2023-03-26T00:54:09.792Z,38.17
2023-03-26T00:56:38.748Z,39.50
2023-03-26T00:59:06.429Z,39.00
2023-03-26T01:01:34.015Z,40.05
2023-03-26T01:04:27.531Z,42.17
2023-03-26T01:07:02.874Z,33.90
2023-03-26T01:09:42.984Z,35.67
2023-03-26T01:12:17.008Z,44.60
2023-03-26T01:14:47.623Z,34.50
2023-03-26T01:17:16.114Z,35.80
2023-03-26T01:20:26.647Z,38.22
2023-03-26T01:23:05.352Z,38.88
2023-03-26T01:25:43.631Z,38.40
2023-03-26T01:28:12.580Z,32.67
2023-03-26T01:30:58.641Z,33.45
2023-03-26T01:34:00.211Z,39.47
2023-03-26T01:36:46.789Z,25.85
2023-03-26T01:39:28.226Z,38.78
2023-03-26T01:42:07.045Z,38.30
2023-03-26T01:44:56.445Z,41.50
2023-03-26T01:47:24.705Z,29.73
2023-03-26T01:49:52.342Z,34.53
2023-03-26T01:52:25.303Z,37.90
2023-03-26T01:54:56.695Z,33.15
2023-03-26T01:57:32.149Z,42.67
2023-03-26T02:00:19.359Z,31.05
2023-03-26T02:03:18.112Z,34.75
2023-03-26T02:06:09.809Z,37.00
2023-03-26T02:08:52.292Z,33.25
2023-03-26T02:11:21.612Z,31.42
2023-03-26T02:13:51.836Z,40.87
2023-03-26T02:16:21.172Z,31.85
2023-03-26T02:18:55.634Z,35.72
2023-03-26T02:21:26.011Z,33.60
2023-03-26T02:24:03.593Z,40.65
2023-03-26T02:26:37.726Z,39.55
2023-03-26T02:29:13.524Z,28.95
2023-03-26T02:31:43.894Z,32.22
2023-03-26T02:34:11.376Z,37.88
2023-03-26T02:36:43.093Z,29.08
2023-03-26T02:39:14.259Z,31.65
2023-03-26T02:41:44.640Z,36.55
2023-03-26T02:44:13.061Z,41.42
2023-03-26T02:47:03.644Z,31.52
2023-03-26T02:49:50.072Z,35.97
2023-03-26T02:52:37.432Z,26.98
2023-03-26T02:55:05.347Z,37.85
2023-03-26T02:57:33.563Z,35.72
2023-03-26T03:00:17.121Z,33.60
2023-03-26T03:03:04.624Z,31.98
2023-03-26T03:05:33.481Z,33.17
2023-03-26T03:08:28.583Z,37.47
2023-03-26T03:11:24.884Z,34.28
2023-03-26T03:13:54.095Z,29.75
2023-03-26T03:16:29.660Z,27.00
2023-03-26T03:18:59.990Z,36.15
2023-03-26T03:21:36.140Z,34.42
2023-03-26T03:24:04.105Z,32.60
2023-03-26T03:26:36.468Z,32.60
2023-03-26T03:29:16.377Z,35.90
2023-03-26T03:31:44.003Z,32.65
2023-03-26T03:34:25.526Z,34.63
2023-03-26T03:36:53.247Z,29.10
2023-03-26T03:39:32.920Z,35.25
2023-03-26T03:42:00.444Z,29.35
2023-03-26T03:44:28.098Z,28.60
2023-03-26T03:46:56.855Z,29.95
2023-03-26T03:49:24.694Z,26.88
2023-03-26T03:51:52.236Z,27.67
2023-03-26T03:54:35.181Z,25.98
2023-03-26T03:57:22.956Z,28.60
2023-03-26T03:59:58.490Z,28.63
2023-03-26T04:02:34.806Z,39.38
2023-03-26T04:05:06.405Z,27.20
2023-03-26T04:07:35.353Z,33.85
2023-03-26T04:10:09.561Z,27.33
2023-03-26T04:12:55.811Z,31.77
2023-03-26T04:15:40.793Z,32.83
2023-03-26T04:18:12.305Z,27.50
2023-03-26T04:20:46.361Z,29.25
2023-03-26T04:23:19.626Z,29.98
2023-03-26T04:28:54.378Z,25.98
2023-03-26T04:31:31.986Z,26.60
2023-03-26T04:34:13.649Z,29.38
2023-03-26T04:36:54.548Z,32.08
2023-03-26T04:39:29.394Z,31.67
2023-03-26T04:42:15.420Z,26.35
2023-03-26T04:44:59.699Z,23.90
2023-03-26T04:47:29.045Z,24.30
2023-03-26T04:49:56.655Z,25.20
2023-03-26T04:52:24.414Z,26.50
2023-03-26T04:54:54.758Z,30.10
2023-03-26T04:57:33.900Z,25.83
2023-03-26T05:00:17.564Z,25.17
2023-03-26T05:02:54.053Z,30.67
2023-03-26T05:05:22.677Z,22.67
2023-03-26T05:07:51.375Z,30.05
2023-03-26T05:10:22.020Z,25.13
2023-03-26T05:12:57.924Z,35.38
2023-03-26T05:15:37.114Z,26.60
2023-03-26T05:18:10.947Z,27.70
2023-03-26T05:20:43.483Z,35.38
2023-03-26T05:23:11.294Z,28.85
2023-03-26T05:25:43.174Z,30.63
2023-03-26T05:28:23.331Z,25.67
2023-03-26T05:30:58.107Z,28.95
2023-03-26T05:33:29.112Z,26.33
2023-03-26T05:36:17.287Z,22.50
2023-03-26T05:38:50.025Z,31.00
2023-03-26T05:41:40.875Z,23.15
2023-03-26T05:44:08.441Z,25.33
2023-03-26T05:46:36.925Z,28.90
2023-03-26T05:49:04.571Z,30.92
2023-03-26T05:51:35.307Z,22.63
2023-03-26T05:54:26.209Z,23.98
2023-03-26T05:57:08.827Z,29.00
2023-03-26T05:59:58.578Z,20.50
2023-03-26T06:02:46.730Z,22.48
2023-03-26T06:05:37.196Z,25.40
2023-03-26T06:08:14.891Z,33.00
2023-03-26T06:10:50.816Z,21.08
2023-03-26T06:13:19.099Z,27.88
2023-03-26T06:15:49.016Z,26.55
2023-03-26T06:21:16.934Z,29.73
2023-03-26T06:23:51.642Z,33.80
2023-03-26T06:26:48.577Z,27.98
2023-03-26T06:29:21.761Z,30.48
2023-03-26T06:32:16.373Z,22.08
2023-03-26T06:34:51.500Z,25.88
2023-03-26T06:37:19.102Z,30.55
2023-03-26T06:39:48.011Z,32.67
2023-03-26T06:42:18.237Z,27.83
2023-03-26T06:45:27.881Z,22.83
2023-03-26T06:48:28.092Z,25.92
2023-03-26T06:51:18.538Z,24.80
2023-03-26T06:54:04.892Z,27.75
2023-03-26T06:56:51.173Z,26.42
2023-03-26T06:59:37.238Z,29.20
2023-03-26T07:02:34.032Z,27.67
2023-03-26T07:05:20.724Z,23.55
2023-03-26T07:08:09.036Z,27.92
2023-03-26T07:10:55.308Z,31.20
2023-03-26T07:13:48.243Z,27.60
2023-03-26T07:16:46.620Z,20.65
2023-03-26T07:19:32.149Z,24.75
2023-03-26T07:22:00.957Z,28.83
2023-03-26T07:25:01.673Z,24.05
2023-03-26T07:28:13.277Z,24.58
2023-03-26T07:31:34.799Z,25.58
2023-03-26T07:34:59.146Z,23.60
2023-03-26T07:38:19.562Z,19.55
2023-03-26T07:41:54.588Z,21.98
2023-03-26T07:45:20.898Z,24.70
2023-03-26T07:48:02.150Z,26.70
2023-03-26T07:51:00.106Z,28.17
2023-03-26T07:53:49.758Z,19.65
2023-03-26T07:56:59.474Z,20.70
2023-03-26T08:00:22.275Z,23.08
2023-03-26T08:06:39.075Z,19.63
2023-03-26T08:09:35.820Z,15.25
2023-03-26T08:12:51.052Z,23.10
2023-03-26T08:15:39.208Z,20.83
2023-03-26T08:18:45.249Z,17.00
2023-03-26T08:21:58.056Z,21.77
2023-03-26T08:24:59.310Z,18.05
2023-03-26T08:28:05.236Z,17.60
2023-03-26T08:30:33.129Z,16.17
2023-03-26T08:33:17.992Z,16.73
2023-03-26T08:35:46.928Z,19.08
2023-03-26T08:38:19.609Z,16.65
2023-03-26T08:41:05.918Z,14.65
2023-03-26T08:44:14.990Z,19.23
2023-03-26T08:47:18.430Z,12.90
2023-03-26T08:50:16.728Z,19.20
2023-03-26T08:53:05.694Z,17.63
2023-03-26T08:55:51.729Z,17.30
2023-03-26T08:58:31.448Z,18.70
2023-03-26T09:01:23.931Z,14.23
2023-03-26T09:04:32.329Z,13.35
2023-03-26T09:07:38.256Z,17.75
2023-03-26T09:11:05.038Z,19.95
2023-03-26T09:14:17.140Z,19.77
2023-03-26T09:17:05.841Z,13.43
2023-03-26T09:20:26.650Z,14.75
2023-03-26T09:23:08.908Z,16.40
2023-03-26T09:26:13.900Z,13.40
2023-03-26T09:29:06.446Z,13.63
2023-03-26T09:31:51.968Z,21.92
2023-03-26T09:34:51.689Z,17.17
2023-03-26T09:37:56.140Z,17.88
2023-03-26T09:41:16.292Z,14.80
2023-03-26T09:43:59.029Z,15.27
2023-03-26T09:46:37.855Z,14.55
2023-03-26T09:49:38.931Z,11.45
2023-03-26T09:52:27.242Z,12.00
2023-03-26T09:55:21.101Z,17.50
2023-03-26T09:58:20.006Z,9.93
2023-03-26T10:01:21.135Z,9.20
2023-03-26T10:04:12.324Z,8.87
2023-03-26T10:06:54.966Z,10.37
2023-03-26T10:09:37.648Z,7.55
2023-03-26T10:12:41.841Z,8.77
2023-03-26T10:15:54.350Z,9.50
2023-03-26T10:18:59.472Z,7.65
2023-03-26T10:21:36.794Z,9.93
2023-03-26T10:24:28.879Z,10.50
2023-03-26T10:27:32.187Z,6.28
2023-03-26T10:31:08.236Z,5.93
2023-03-26T10:34:28.919Z,6.47
2023-03-26T10:37:30.454Z,6.57
2023-03-26T10:40:27.406Z,8.02
2023-03-26T10:43:29.466Z,8.63
2023-03-26T10:46:17.571Z,6.00
2023-03-26T10:49:54.262Z,5.28
2023-03-26T10:52:27.863Z,4.45
2023-03-26T10:55:25.424Z,6.78
2023-03-26T10:58:01.216Z,3.30
2023-03-26T11:00:30.136Z,5.35
2023-03-26T11:03:18.277Z,5.25
2023-03-26T11:06:04.519Z,5.57
2023-03-26T11:08:39.065Z,6.82
2023-03-26T11:11:38.680Z,4.25
2023-03-26T11:14:46.294Z,8.30
2023-03-26T11:17:39.494Z,4.70
2023-03-26T11:20:27.463Z,4.32
2023-03-26T11:23:19.907Z,7.28
2023-03-26T11:26:08.570Z,9.35
2023-03-26T11:29:03.779Z,5.25
2023-03-26T11:32:13.776Z,4.90
2023-03-26T11:35:04.262Z,6.53
2023-03-26T11:37:42.475Z,5.25
2023-03-26T11:40:21.589Z,5.15
2023-03-26T11:42:57.957Z,3.97
2023-03-26T11:45:31.887Z,5.55
2023-03-26T11:48:26.056Z,4.18
2023-03-26T11:51:06.136Z,4.93
2023-03-26T11:53:39.666Z,4.30
2023-03-26T11:56:34.055Z,4.40
2023-03-26T11:59:11.501Z,5.43
2023-03-26T12:02:09.889Z,5.72
2023-03-26T12:04:43.470Z,5.32
2023-03-26T12:07:33.906Z,6.65
2023-03-26T12:10:18.707Z,6.47
2023-03-26T12:12:48.179Z,7.00
2023-03-26T12:15:19.490Z,6.20
2023-03-26T12:17:56.419Z,6.00
2023-03-26T12:20:25.101Z,3.85
2023-03-26T12:23:00.776Z,5.05
2023-03-26T12:25:35.335Z,5.30
2023-03-26T12:28:22.239Z,5.40
2023-03-26T12:31:02.790Z,5.45
2023-03-26T12:33:38.788Z,5.18
2023-03-26T12:36:36.627Z,4.38
2023-03-26T12:40:07.330Z,4.75
2023-03-26T12:44:43.337Z,4.43
2023-03-26T12:45:40.780Z,5.32
2023-03-26T12:48:15.638Z,5.43
2023-03-26T12:51:21.190Z,7.85
2023-03-26T12:54:15.405Z,5.43
2023-03-26T12:56:49.903Z,4.70
2023-03-26T12:59:58.721Z,6.43
2023-03-26T13:03:19.330Z,5.50
2023-03-26T13:06:05.653Z,5.60
2023-03-26T13:09:18.163Z,6.22
2023-03-26T13:12:14.414Z,6.47
2023-03-26T13:15:22.075Z,6.00
2023-03-26T13:18:11.115Z,6.18
2023-03-26T13:20:57.205Z,6.78
2023-03-26T13:23:45.370Z,6.53
2023-03-26T13:26:33.343Z,9.35
2023-03-26T13:29:57.771Z,10.23
2023-03-26T13:33:07.135Z,12.88
2023-03-26T13:36:21.642Z,10.77
2023-03-26T13:39:17.055Z,10.60
2023-03-26T13:42:21.914Z,14.15
2023-03-26T13:45:06.500Z,15.57
2023-03-26T13:47:42.476Z,14.38
2023-03-26T13:50:28.355Z,12.00
2023-03-26T13:53:21.489Z,14.43
2023-03-26T13:55:57.014Z,12.38
2023-03-26T13:58:44.857Z,14.63
2023-03-26T14:01:34.050Z,18.88
2023-03-26T14:04:37.383Z,12.30
2023-03-26T14:07:26.255Z,11.25
2023-03-26T14:10:06.209Z,17.83
2023-03-26T14:13:05.629Z,14.73
2023-03-26T14:16:27.964Z,20.58
2023-03-26T14:19:36.038Z,19.88
2023-03-26T14:22:59.516Z,20.05
2023-03-26T14:25:57.144Z,15.88
2023-03-26T14:28:48.410Z,20.50
2023-03-26T14:31:42.905Z,19.27
2023-03-26T14:34:23.501Z,22.23
2023-03-26T14:37:29.938Z,20.73
2023-03-26T14:40:47.541Z,18.35
2023-03-26T14:43:55.731Z,22.85
2023-03-26T14:46:39.835Z,18.70
2023-03-26T14:49:29.398Z,18.98
2023-03-26T14:52:28.319Z,21.30
2023-03-26T14:55:03.486Z,18.15
2023-03-26T14:58:03.797Z,19.30
2023-03-26T15:01:23.067Z,17.10
2023-03-26T15:04:38.435Z,23.85
2023-03-26T15:07:44.551Z,20.83
2023-03-26T15:10:49.656Z,16.83
2023-03-26T15:13:48.956Z,22.75
2023-03-26T15:16:50.033Z,16.67
2023-03-26T15:19:47.333Z,22.75
2023-03-26T15:22:51.038Z,14.82
2023-03-26T15:25:22.081Z,22.30
2023-03-26T15:29:16.960Z,23.33
2023-03-26T15:32:09.338Z,19.58
2023-03-26T15:35:27.662Z,22.48
2023-03-26T15:38:25.752Z,15.52
2023-03-26T15:41:21.346Z,20.35
2023-03-26T15:44:23.265Z,16.33
2023-03-26T15:47:13.238Z,16.23
2023-03-26T15:49:54.358Z,14.32
2023-03-26T15:52:37.191Z,12.82
2023-03-26T15:55:19.020Z,14.93
2023-03-26T15:58:06.624Z,15.00
2023-03-26T16:00:47.952Z,13.63
2023-03-26T16:03:39.686Z,15.70
2023-03-26T16:06:31.176Z,11.10
2023-03-26T16:09:18.187Z,16.25
2023-03-26T16:11:58.416Z,13.80
2023-03-26T16:14:35.548Z,15.02
2023-03-26T16:17:17.427Z,14.50
2023-03-26T16:20:32.972Z,12.57
2023-03-26T16:23:04.583Z,16.67
2023-03-26T16:25:57.179Z,14.90
2023-03-26T16:28:32.603Z,11.65
2023-03-26T16:31:39.438Z,12.38
2023-03-26T16:34:10.230Z,12.93
2023-03-26T16:36:50.119Z,16.17
2023-03-26T16:39:22.822Z,18.08
2023-03-26T16:42:30.399Z,16.80
2023-03-26T16:45:49.095Z,16.02
2023-03-26T16:48:28.866Z,18.50
2023-03-26T16:51:57.873Z,17.55
2023-03-26T16:54:54.185Z,16.05
2023-03-26T16:57:45.420Z,15.13
2023-03-26T17:00:55.720Z,14.35
2023-03-26T17:03:52.181Z,11.93
2023-03-26T17:07:03.520Z,16.08
2023-03-26T17:09:37.898Z,15.60
2023-03-26T17:12:20.710Z,14.25
2023-03-26T17:15:10.489Z,13.10
2023-03-26T17:18:13.178Z,15.60
2023-03-26T17:21:46.121Z,14.52
2023-03-26T17:24:44.048Z,15.27
2023-03-26T17:27:53.251Z,13.30
2023-03-26T17:30:30.785Z,11.10
2023-03-26T17:33:03.920Z,14.07
2023-03-26T17:36:11.915Z,9.38
2023-03-26T17:38:39.561Z,15.35
2023-03-26T17:41:56.340Z,16.73
2023-03-26T17:44:38.499Z,19.23
2023-03-26T17:47:20.087Z,12.00
2023-03-26T17:49:55.018Z,11.98
2023-03-26T17:52:33.441Z,14.52
2023-03-26T17:55:02.013Z,9.57
2023-03-26T17:57:42.780Z,11.93
2023-03-26T18:00:34.985Z,14.55
2023-03-26T18:03:39.874Z,13.05
2023-03-26T18:06:17.548Z,13.40
2023-03-26T18:09:12.078Z,11.00
2023-03-26T18:12:36.986Z,14.52
2023-03-26T18:15:56.281Z,12.75
2023-03-26T18:18:43.328Z,10.65
2023-03-26T18:21:38.848Z,15.88
2023-03-26T18:24:15.643Z,11.75
2023-03-26T18:26:49.608Z,13.73
2023-03-26T18:29:19.894Z,17.10
2023-03-26T18:31:54.246Z,17.50
2023-03-26T18:34:24.525Z,12.00
2023-03-26T18:37:04.693Z,9.48
2023-03-26T18:39:32.796Z,12.77
2023-03-26T18:42:00.797Z,15.45
2023-03-26T18:44:31.286Z,13.77
2023-03-26T18:47:04.922Z,14.13
2023-03-26T18:49:32.824Z,12.20
2023-03-26T18:52:01.419Z,9.98
2023-03-26T18:54:36.213Z,13.52
2023-03-26T18:57:19.462Z,13.75
2023-03-26T18:59:56.050Z,13.50
2023-03-26T19:02:26.284Z,13.45
2023-03-26T19:04:56.686Z,15.85
2023-03-26T19:07:27.142Z,15.50
2023-03-26T19:09:56.821Z,16.23
2023-03-26T19:12:36.056Z,11.68
2023-03-26T19:15:19.918Z,19.80
2023-03-26T19:17:56.819Z,12.18
2023-03-26T19:20:29.201Z,13.43
2023-03-26T19:23:01.356Z,13.32
2023-03-26T19:25:42.683Z,13.68
2023-03-26T19:28:25.934Z,18.60
2023-03-26T19:31:14.722Z,13.38
2023-03-26T19:33:44.408Z,12.38
2023-03-26T19:36:17.846Z,12.80
2023-03-26T19:38:48.429Z,7.90
2023-03-26T19:41:23.888Z,14.65
2023-03-26T19:43:58.225Z,12.80
2023-03-26T19:46:28.941Z,12.50
2023-03-26T19:48:58.116Z,12.32
2023-03-26T19:51:37.631Z,12.70
2023-03-26T19:54:19.870Z,12.52
2023-03-26T19:56:50.126Z,15.30
2023-03-26T19:59:17.835Z,12.00
2023-03-26T20:01:45.544Z,11.23
2023-03-26T20:04:13.685Z,14.30
2023-03-26T20:06:44.128Z,16.67
2023-03-26T20:09:13.666Z,11.35
2023-03-26T20:11:41.727Z,13.85
2023-03-26T20:14:16.888Z,14.25
2023-03-26T20:16:46.146Z,14.95
2023-03-26T20:19:15.401Z,12.70
2023-03-26T20:21:44.901Z,12.70
2023-03-26T20:24:17.603Z,12.60
2023-03-26T20:26:48.329Z,12.60
2023-03-26T20:29:16.942Z,11.40
2023-03-26T20:31:45.309Z,14.13
2023-03-26T20:34:23.370Z,12.95
2023-03-26T20:36:56.197Z,12.32
2023-03-26T20:39:25.043Z,14.68
2023-03-26T20:41:55.184Z,12.18
2023-03-26T20:44:23.357Z,12.65
2023-03-26T20:46:51.610Z,17.42
2023-03-26T20:49:22.344Z,9.70
2023-03-26T20:51:57.487Z,13.07
2023-03-26T20:54:35.860Z,13.15
2023-03-26T20:57:03.914Z,13.18
2023-03-26T20:59:31.743Z,15.45
2023-03-26T21:01:59.525Z,9.38
2023-03-26T21:04:27.894Z,15.27
2023-03-26T21:07:07.196Z,15.05
2023-03-26T21:09:44.789Z,11.90
2023-03-26T21:12:33.450Z,10.15
2023-03-26T21:15:03.357Z,15.23
2023-03-26T21:17:35.549Z,15.88
2023-03-26T21:20:13.487Z,17.38
2023-03-26T21:23:23.641Z,15.82
2023-03-26T21:26:07.142Z,14.82
2023-03-26T21:28:49.105Z,18.23
2023-03-26T21:31:20.433Z,11.43
2023-03-26T21:33:49.652Z,15.63
2023-03-26T21:36:19.826Z,14.68
2023-03-26T21:38:48.139Z,14.07
2023-03-26T21:41:35.887Z,17.60
2023-03-26T21:44:03.793Z,14.40
2023-03-26T21:46:31.928Z,11.88
2023-03-26T21:49:00.306Z,15.68
2023-03-26T21:51:29.239Z,17.23
2023-03-26T21:53:57.397Z,13.75
2023-03-26T21:56:56.021Z,17.73
2023-03-26T21:59:36.713Z,13.77
2023-03-26T22:02:34.629Z,13.68
2023-03-26T22:06:01.280Z,16.85
2023-03-26T22:08:38.971Z,13.93
2023-03-26T22:11:10.288Z,12.38
2023-03-26T22:13:38.987Z,11.77
2023-03-26T22:16:09.396Z,11.43
2023-03-26T22:18:36.957Z,12.32
2023-03-26T22:21:05.860Z,12.68
2023-03-26T22:23:36.373Z,13.80
2023-03-26T22:26:06.173Z,13.20
2023-03-26T22:28:33.641Z,15.82
2023-03-26T22:31:08.551Z,12.63
2023-03-26T22:33:36.403Z,12.80
2023-03-26T22:36:04.435Z,12.40
2023-03-26T22:38:31.958Z,13.05
2023-03-26T22:40:59.481Z,17.65
2023-03-26T22:43:27.860Z,13.15
2023-03-26T22:45:56.538Z,13.63
2023-03-26T22:48:24.655Z,12.30
2023-03-26T22:51:01.810Z,10.48
2023-03-26T22:53:30.850Z,11.07
2023-03-26T22:56:00.009Z,11.90
2023-03-26T22:58:28.273Z,11.15
2023-03-26T23:01:24.150Z,11.85
2023-03-26T23:03:52.046Z,13.00
2023-03-26T23:06:19.733Z,14.07
2023-03-26T23:08:47.496Z,15.50
2023-03-26T23:11:19.630Z,11.02
2023-03-26T23:13:48.009Z,13.15
2023-03-26T23:16:17.496Z,11.55
2023-03-26T23:18:45.200Z,12.15
2023-03-26T23:21:22.038Z,16.70
2023-03-26T23:23:52.117Z,12.07
2023-03-26T23:26:20.028Z,16.75
2023-03-26T23:28:47.905Z,11.93
2023-03-26T23:31:15.556Z,10.55
2023-03-26T23:33:46.702Z,11.02
2023-03-26T23:36:18.683Z,13.85
2023-03-26T23:38:48.456Z,16.75
2023-03-26T23:41:22.057Z,10.88
2023-03-26T23:43:54.472Z,12.48
2023-03-26T23:46:34.629Z,13.02
2023-03-26T23:49:03.822Z,10.95
2023-03-26T23:51:32.682Z,10.98
2023-03-26T23:54:04.468Z,16.08
2023-03-26T23:56:32.081Z,11.60
2023-03-26T23:59:00.527Z,14.32
